sensor_id;sensor_type;location;lat;lon;timestamp;pressure;altitude;pressure_sealevel;temperature;humidity
78584;BME280;67880;46.082;18.234;2023-10-19T00:00:57;99130.97;;;12.94;57.58
78584;BME280;67880;46.082;18.234;2023-10-19T00:02:01;99131.16;;;12.93;57.51
78584;BME280;67880;46.082;18.234;2023-10-19T00:03:17;99117.59;;;12.86;57.93
78584;BME280;67880;46.082;18.234;2023-10-19T00:03:52;99122.53;;;12.83;57.98
78584;BME280;67880;46.082;18.234;2023-10-19T00:04:34;99118.63;;;12.85;58.13
78584;BME280;67880;46.082;18.234;2023-10-19T00:05:23;99121.06;;;12.95;58.01
78584;BME280;67880;46.082;18.234;2023-10-19T00:06:21;99120.56;;;12.91;57.79
78584;BME280;67880;46.082;18.234;2023-10-19T00:07:30;99128.94;;;12.96;57.58
78584;BME280;67880;46.082;18.234;2023-10-19T00:08:13;99127.81;;;12.91;57.98
78584;BME280;67880;46.082;18.234;2023-10-19T00:09:02;99131.06;;;12.86;58.29
78584;BME280;67880;46.082;18.234;2023-10-19T00:10:23;99130.88;;;12.88;58.37
78584;BME280;67880;46.082;18.234;2023-10-19T00:11:53;99132.47;;;12.97;57.86
78584;BME280;67880;46.082;18.234;2023-10-19T00:12:50;99123.81;;;13.01;58.16
78584;BME280;67880;46.082;18.234;2023-10-19T00:13:37;99131.06;;;13.01;58.03
78584;BME280;67880;46.082;18.234;2023-10-19T00:14:33;99132.56;;;13.04;58.25
78584;BME280;67880;46.082;18.234;2023-10-19T00:15:20;99129.13;;;12.95;58.62
78584;BME280;67880;46.082;18.234;2023-10-19T00:16:28;99123.19;;;12.85;59.91
78584;BME280;67880;46.082;18.234;2023-10-19T00:17:39;99113.25;;;12.85;60.16
78584;BME280;67880;46.082;18.234;2023-10-19T00:18:27;99117.88;;;12.91;59.83
78584;BME280;67880;46.082;18.234;2023-10-19T00:19:37;99119.56;;;12.92;59.70
78584;BME280;67880;46.082;18.234;2023-10-19T00:20:42;99126.44;;;12.80;61.27
78584;BME280;67880;46.082;18.234;2023-10-19T00:21:23;99126.53;;;12.72;61.16
78584;BME280;67880;46.082;18.234;2023-10-19T00:23:14;99131.09;;;12.71;61.34
78584;BME280;67880;46.082;18.234;2023-10-19T00:24:56;99121.78;;;12.74;61.98
78584;BME280;67880;46.082;18.234;2023-10-19T00:25:36;99109.72;;;12.70;61.82
78584;BME280;67880;46.082;18.234;2023-10-19T00:26:19;99122.19;;;12.71;62.25
78584;BME280;67880;46.082;18.234;2023-10-19T00:27:02;99116.31;;;12.67;62.48
78584;BME280;67880;46.082;18.234;2023-10-19T00:28:01;99115.28;;;12.68;61.77
78584;BME280;67880;46.082;18.234;2023-10-19T00:29:21;99113.16;;;12.64;61.63
78584;BME280;67880;46.082;18.234;2023-10-19T00:30:11;99114.00;;;12.79;61.28
78584;BME280;67880;46.082;18.234;2023-10-19T00:31:02;99103.03;;;12.81;61.41
78584;BME280;67880;46.082;18.234;2023-10-19T00:31:46;99106.66;;;12.73;61.76
78584;BME280;67880;46.082;18.234;2023-10-19T00:32:29;99115.47;;;12.67;62.14
78584;BME280;67880;46.082;18.234;2023-10-19T00:33:55;99112.97;;;12.65;62.35
78584;BME280;67880;46.082;18.234;2023-10-19T00:34:42;99112.78;;;12.67;62.19
78584;BME280;67880;46.082;18.234;2023-10-19T00:35:30;99117.81;;;12.70;61.43
78584;BME280;67880;46.082;18.234;2023-10-19T00:37:07;99107.41;;;12.67;62.71
78584;BME280;67880;46.082;18.234;2023-10-19T00:38:49;99096.81;;;12.65;61.94
78584;BME280;67880;46.082;18.234;2023-10-19T00:39:29;99105.53;;;12.67;62.32
78584;BME280;67880;46.082;18.234;2023-10-19T00:40:29;99110.66;;;12.62;62.75
78584;BME280;67880;46.082;18.234;2023-10-19T00:41:24;99115.03;;;12.63;62.14
78584;BME280;67880;46.082;18.234;2023-10-19T00:42:45;99107.50;;;12.73;61.63
78584;BME280;67880;46.082;18.234;2023-10-19T00:43:29;99103.84;;;12.81;61.95
78584;BME280;67880;46.082;18.234;2023-10-19T00:44:13;99099.78;;;12.70;64.22
78584;BME280;67880;46.082;18.234;2023-10-19T00:45:40;99095.16;;;12.64;63.84
78584;BME280;67880;46.082;18.234;2023-10-19T00:47:05;99088.19;;;12.70;63.58
78584;BME280;67880;46.082;18.234;2023-10-19T00:49:11;99091.69;;;12.56;63.16
78584;BME280;67880;46.082;18.234;2023-10-19T00:49:56;99092.81;;;12.61;63.22
78584;BME280;67880;46.082;18.234;2023-10-19T00:50:46;99087.91;;;12.65;63.55
78584;BME280;67880;46.082;18.234;2023-10-19T00:52:10;99096.25;;;12.70;63.69
78584;BME280;67880;46.082;18.234;2023-10-19T00:54:03;99086.53;;;12.69;63.66
78584;BME280;67880;46.082;18.234;2023-10-19T00:54:50;99082.31;;;12.66;63.88
78584;BME280;67880;46.082;18.234;2023-10-19T00:55:36;99079.19;;;12.63;63.08
78584;BME280;67880;46.082;18.234;2023-10-19T00:56:17;99072.84;;;12.56;63.38
78584;BME280;67880;46.082;18.234;2023-10-19T00:57:03;99075.28;;;12.51;63.22
78584;BME280;67880;46.082;18.234;2023-10-19T00:57:42;99081.88;;;12.48;63.48
78584;BME280;67880;46.082;18.234;2023-10-19T00:58:25;99075.66;;;12.62;62.78
78584;BME280;67880;46.082;18.234;2023-10-19T00:59:07;99071.66;;;12.58;63.41
78584;BME280;67880;46.082;18.234;2023-10-19T01:00:34;99062.91;;;12.71;63.49
78584;BME280;67880;46.082;18.234;2023-10-19T01:02:27;99056.50;;;12.72;63.74
78584;BME280;67880;46.082;18.234;2023-10-19T01:03:11;99054.66;;;12.72;62.89
78584;BME280;67880;46.082;18.234;2023-10-19T01:03:53;99054.66;;;12.72;63.32
78584;BME280;67880;46.082;18.234;2023-10-19T01:04:31;99060.31;;;12.78;63.75
78584;BME280;67880;46.082;18.234;2023-10-19T01:05:27;99051.75;;;12.74;63.10
78584;BME280;67880;46.082;18.234;2023-10-19T01:06:16;99056.13;;;12.75;62.86
78584;BME280;67880;46.082;18.234;2023-10-19T01:06:55;99054.91;;;12.78;63.51
78584;BME280;67880;46.082;18.234;2023-10-19T01:07:42;99049.81;;;12.68;62.91
78584;BME280;67880;46.082;18.234;2023-10-19T01:08:21;99052.50;;;12.68;63.08
78584;BME280;67880;46.082;18.234;2023-10-19T01:09:07;99047.31;;;12.66;63.26
78584;BME280;67880;46.082;18.234;2023-10-19T01:09:55;99042.22;;;12.57;63.29
78584;BME280;67880;46.082;18.234;2023-10-19T01:10:43;99041.00;;;12.59;63.46
78584;BME280;67880;46.082;18.234;2023-10-19T01:11:37;99045.84;;;12.64;63.10
78584;BME280;67880;46.082;18.234;2023-10-19T01:12:31;99042.97;;;12.65;62.89
78584;BME280;67880;46.082;18.234;2023-10-19T01:16:25;99029.78;;;12.56;63.43
78584;BME280;67880;46.082;18.234;2023-10-19T01:18:02;99032.22;;;12.51;63.20
78584;BME280;67880;46.082;18.234;2023-10-19T01:18:38;99028.69;;;12.50;63.38
78584;BME280;67880;46.082;18.234;2023-10-19T01:19:24;99039.25;;;12.52;63.73
78584;BME280;67880;46.082;18.234;2023-10-19T01:20:18;99039.34;;;12.58;63.71
78584;BME280;67880;46.082;18.234;2023-10-19T01:21:05;99029.41;;;12.59;64.05
78584;BME280;67880;46.082;18.234;2023-10-19T01:23:10;99026.25;;;12.55;63.58
78584;BME280;67880;46.082;18.234;2023-10-19T01:25:28;99033.88;;;12.52;63.74
78584;BME280;67880;46.082;18.234;2023-10-19T01:26:46;99032.75;;;12.46;64.00
78584;BME280;67880;46.082;18.234;2023-10-19T01:28:10;99027.47;;;12.53;63.86
78584;BME280;67880;46.082;18.234;2023-10-19T01:29:03;99031.00;;;12.53;63.81
78584;BME280;67880;46.082;18.234;2023-10-19T01:30:23;99030.44;;;12.58;63.62
78584;BME280;67880;46.082;18.234;2023-10-19T01:31:18;99026.09;;;12.57;64.03
78584;BME280;67880;46.082;18.234;2023-10-19T01:33:24;99012.22;;;12.60;63.99
78584;BME280;67880;46.082;18.234;2023-10-19T01:34:12;99020.31;;;12.60;64.02
78584;BME280;67880;46.082;18.234;2023-10-19T01:35:01;99015.47;;;12.55;64.25
78584;BME280;67880;46.082;18.234;2023-10-19T01:35:43;99016.50;;;12.54;64.33
78584;BME280;67880;46.082;18.234;2023-10-19T01:36:48;99007.59;;;12.54;64.22
78584;BME280;67880;46.082;18.234;2023-10-19T01:37:53;99006.75;;;12.53;64.54
78584;BME280;67880;46.082;18.234;2023-10-19T01:38:59;99002.50;;;12.44;64.78
78584;BME280;67880;46.082;18.234;2023-10-19T01:39:59;99000.25;;;12.47;64.38
78584;BME280;67880;46.082;18.234;2023-10-19T01:40:44;99007.31;;;12.48;64.32
78584;BME280;67880;46.082;18.234;2023-10-19T01:41:37;98999.81;;;12.44;64.68
78584;BME280;67880;46.082;18.234;2023-10-19T01:42:19;99004.53;;;12.42;64.49
78584;BME280;67880;46.082;18.234;2023-10-19T01:43:47;99011.03;;;12.47;64.49
78584;BME280;67880;46.082;18.234;2023-10-19T01:44:43;99011.69;;;12.50;64.64
78584;BME280;67880;46.082;18.234;2023-10-19T01:45:31;99015.38;;;12.48;64.44
78584;BME280;67880;46.082;18.234;2023-10-19T01:46:28;99007.41;;;12.40;64.42
78584;BME280;67880;46.082;18.234;2023-10-19T01:47:08;99007.31;;;12.48;64.68
78584;BME280;67880;46.082;18.234;2023-10-19T01:47:47;99005.38;;;12.42;64.19
78584;BME280;67880;46.082;18.234;2023-10-19T01:48:23;99006.22;;;12.43;64.30
78584;BME280;67880;46.082;18.234;2023-10-19T01:50:33;98995.72;;;12.48;64.05
78584;BME280;67880;46.082;18.234;2023-10-19T01:51:23;99002.31;;;12.45;64.50
78584;BME280;67880;46.082;18.234;2023-10-19T01:52:05;99009.16;;;12.48;64.41
78584;BME280;67880;46.082;18.234;2023-10-19T01:53:14;99007.50;;;12.47;64.55
78584;BME280;67880;46.082;18.234;2023-10-19T01:54:49;99003.34;;;12.44;64.53
78584;BME280;67880;46.082;18.234;2023-10-19T01:55:51;99000.84;;;12.43;64.79
78584;BME280;67880;46.082;18.234;2023-10-19T01:56:38;98997.97;;;12.44;64.43
78584;BME280;67880;46.082;18.234;2023-10-19T01:57:21;99002.50;;;12.44;64.96
78584;BME280;67880;46.082;18.234;2023-10-19T01:58:20;98992.66;;;12.36;65.07
78584;BME280;67880;46.082;18.234;2023-10-19T01:59:10;98991.06;;;12.42;65.07
78584;BME280;67880;46.082;18.234;2023-10-19T02:00:01;98987.38;;;12.43;64.95
78584;BME280;67880;46.082;18.234;2023-10-19T02:00:46;98992.56;;;12.44;65.13
78584;BME280;67880;46.082;18.234;2023-10-19T02:01:58;98992.28;;;12.39;65.03
78584;BME280;67880;46.082;18.234;2023-10-19T02:03:01;98990.09;;;12.43;65.06
78584;BME280;67880;46.082;18.234;2023-10-19T02:06:32;98986.38;;;12.44;65.31
78584;BME280;67880;46.082;18.234;2023-10-19T02:07:39;98984.50;;;12.44;65.33
78584;BME280;67880;46.082;18.234;2023-10-19T02:09:29;98975.13;;;12.40;65.20
78584;BME280;67880;46.082;18.234;2023-10-19T02:10:48;98984.22;;;12.39;65.96
78584;BME280;67880;46.082;18.234;2023-10-19T02:12:05;98981.06;;;12.36;65.62
78584;BME280;67880;46.082;18.234;2023-10-19T02:13:28;98982.63;;;12.45;65.38
78584;BME280;67880;46.082;18.234;2023-10-19T02:15:06;98975.13;;;12.40;65.29
78584;BME280;67880;46.082;18.234;2023-10-19T02:16:28;98974.28;;;12.40;65.60
78584;BME280;67880;46.082;18.234;2023-10-19T02:17:14;98976.16;;;12.39;65.99
78584;BME280;67880;46.082;18.234;2023-10-19T02:20:40;98984.78;;;12.50;65.30
78584;BME280;67880;46.082;18.234;2023-10-19T02:21:19;98992.00;;;12.49;65.33
78584;BME280;67880;46.082;18.234;2023-10-19T02:22:09;98983.91;;;12.49;65.38
78584;BME280;67880;46.082;18.234;2023-10-19T02:23:27;98989.97;;;12.51;65.28
78584;BME280;67880;46.082;18.234;2023-10-19T02:24:23;98981.13;;;12.42;65.54
78584;BME280;67880;46.082;18.234;2023-10-19T02:25:08;98980.03;;;12.52;65.70
78584;BME280;67880;46.082;18.234;2023-10-19T02:25:53;98974.84;;;12.50;65.82
78584;BME280;67880;46.082;18.234;2023-10-19T02:26:38;98977.44;;;12.43;66.00
78584;BME280;67880;46.082;18.234;2023-10-19T02:27:19;98980.38;;;12.48;65.22
78584;BME280;67880;46.082;18.234;2023-10-19T02:28:14;98981.63;;;12.46;65.66
78584;BME280;67880;46.082;18.234;2023-10-19T02:28:57;98983.91;;;12.49;65.57
78584;BME280;67880;46.082;18.234;2023-10-19T02:29:47;98984.78;;;12.50;65.78
78584;BME280;67880;46.082;18.234;2023-10-19T02:30:33;98977.69;;;12.48;65.76
78584;BME280;67880;46.082;18.234;2023-10-19T02:32:03;98974.25;;;12.55;66.00
78584;BME280;67880;46.082;18.234;2023-10-19T02:32:42;98972.72;;;12.45;65.87
78584;BME280;67880;46.082;18.234;2023-10-19T02:33:53;98977.44;;;12.43;66.59
78584;BME280;67880;46.082;18.234;2023-10-19T02:35:20;98972.72;;;12.45;66.18
78584;BME280;67880;46.082;18.234;2023-10-19T02:36:10;98971.03;;;12.44;66.19
78584;BME280;67880;46.082;18.234;2023-10-19T02:37:21;98960.06;;;12.46;66.37
78584;BME280;67880;46.082;18.234;2023-10-19T02:38:14;98957.19;;;12.47;66.50
78584;BME280;67880;46.082;18.234;2023-10-19T02:39:12;98961.75;;;12.47;66.69
78584;BME280;67880;46.082;18.234;2023-10-19T02:40:06;98963.03;;;12.36;66.94
78584;BME280;67880;46.082;18.234;2023-10-19T02:42:50;98965.38;;;12.39;67.45
78584;BME280;67880;46.082;18.234;2023-10-19T02:43:37;98949.97;;;12.33;67.46
78584;BME280;67880;46.082;18.234;2023-10-19T02:44:20;98957.41;;;12.31;67.60
78584;BME280;67880;46.082;18.234;2023-10-19T02:46:22;98962.22;;;12.36;67.56
78584;BME280;67880;46.082;18.234;2023-10-19T02:47:15;98954.34;;;12.34;67.55
78584;BME280;67880;46.082;18.234;2023-10-19T02:48:00;98953.97;;;12.37;67.64
78584;BME280;67880;46.082;18.234;2023-10-19T02:51:42;98956.38;;;12.32;67.92
78584;BME280;67880;46.082;18.234;2023-10-19T02:53:32;98959.09;;;12.32;68.52
78584;BME280;67880;46.082;18.234;2023-10-19T02:55:49;98955.38;;;12.33;68.43
78584;BME280;67880;46.082;18.234;2023-10-19T02:59:39;98950.88;;;12.40;68.44
78584;BME280;67880;46.082;18.234;2023-10-19T03:00:42;98954.22;;;12.42;68.59
78584;BME280;67880;46.082;18.234;2023-10-19T03:04:39;98955.47;;;12.25;69.22
78584;BME280;67880;46.082;18.234;2023-10-19T03:05:48;98948.19;;;12.40;69.15
78584;BME280;67880;46.082;18.234;2023-10-19T03:06:49;98950.06;;;12.40;68.47
78584;BME280;67880;46.082;18.234;2023-10-19T03:07:50;98948.31;;;12.32;68.88
78584;BME280;67880;46.082;18.234;2023-10-19T03:09:40;98947.00;;;12.28;69.12
78584;BME280;67880;46.082;18.234;2023-10-19T03:11:15;98940.13;;;12.40;69.05
78584;BME280;67880;46.082;18.234;2023-10-19T03:12:03;98948.00;;;12.42;69.05
78584;BME280;67880;46.082;18.234;2023-10-19T03:12:43;98948.84;;;12.42;69.13
78584;BME280;67880;46.082;18.234;2023-10-19T03:13:24;98952.19;;;12.44;68.88
78584;BME280;67880;46.082;18.234;2023-10-19T03:14:03;98945.16;;;12.43;68.68
78584;BME280;67880;46.082;18.234;2023-10-19T03:15:06;98942.47;;;12.43;69.00
78584;BME280;67880;46.082;18.234;2023-10-19T03:15:59;98934.63;;;12.48;69.13
78584;BME280;67880;46.082;18.234;2023-10-19T03:16:45;98929.63;;;12.45;68.85
78584;BME280;67880;46.082;18.234;2023-10-19T03:17:23;98935.38;;;12.42;68.88
78584;BME280;67880;46.082;18.234;2023-10-19T03:18:06;98938.25;;;12.41;69.28
78584;BME280;67880;46.082;18.234;2023-10-19T03:20:55;98933.06;;;12.39;69.04
78584;BME280;67880;46.082;18.234;2023-10-19T03:21:39;98928.44;;;12.33;69.75
78584;BME280;67880;46.082;18.234;2023-10-19T03:22:24;98926.78;;;12.32;69.56
78584;BME280;67880;46.082;18.234;2023-10-19T03:23:18;98925.38;;;12.36;70.14
78584;BME280;67880;46.082;18.234;2023-10-19T03:25:37;98923.91;;;12.34;70.43
78584;BME280;67880;46.082;18.234;2023-10-19T03:26:59;98924.53;;;12.36;70.38
78584;BME280;67880;46.082;18.234;2023-10-19T03:27:35;98926.97;;;12.31;70.87
78584;BME280;67880;46.082;18.234;2023-10-19T03:28:32;98923.47;;;12.30;71.46
78584;BME280;67880;46.082;18.234;2023-10-19T03:29:20;98917.50;;;12.35;71.07
78584;BME280;67880;46.082;18.234;2023-10-19T03:30:30;98914.88;;;12.41;71.44
78584;BME280;67880;46.082;18.234;2023-10-19T03:32:14;98914.59;;;12.36;72.08
78584;BME280;67880;46.082;18.234;2023-10-19T03:33:10;98918.91;;;12.31;72.51
78584;BME280;67880;46.082;18.234;2023-10-19T03:33:54;98919.16;;;12.36;72.09
78584;BME280;67880;46.082;18.234;2023-10-19T03:34:43;98909.41;;;12.35;72.14
78584;BME280;67880;46.082;18.234;2023-10-19T03:36:12;98909.22;;;12.36;72.31
78584;BME280;67880;46.082;18.234;2023-10-19T03:37:05;98911.22;;;12.49;72.16
78584;BME280;67880;46.082;18.234;2023-10-19T03:38:13;98904.56;;;12.45;72.93
78584;BME280;67880;46.082;18.234;2023-10-19T03:40:09;98912.38;;;12.40;73.09
78584;BME280;67880;46.082;18.234;2023-10-19T03:41:52;98906.44;;;12.44;73.23
78584;BME280;67880;46.082;18.234;2023-10-19T03:43:23;98896.41;;;12.38;73.64
78584;BME280;67880;46.082;18.234;2023-10-19T03:44:09;98888.97;;;12.40;73.95
78584;BME280;67880;46.082;18.234;2023-10-19T03:45:14;98888.78;;;12.42;74.53
78584;BME280;67880;46.082;18.234;2023-10-19T03:47:00;98885.25;;;12.41;74.89
78584;BME280;67880;46.082;18.234;2023-10-19T03:47:58;98887.31;;;12.39;74.49
78584;BME280;67880;46.082;18.234;2023-10-19T03:49:06;98876.16;;;12.42;74.98
78584;BME280;67880;46.082;18.234;2023-10-19T03:49:52;98883.88;;;12.45;75.01
78584;BME280;67880;46.082;18.234;2023-10-19T03:50:27;98886.84;;;12.36;75.08
78584;BME280;67880;46.082;18.234;2023-10-19T03:51:44;98889.38;;;12.37;75.19
78584;BME280;67880;46.082;18.234;2023-10-19T03:52:43;98880.91;;;12.40;75.05
78584;BME280;67880;46.082;18.234;2023-10-19T03:53:29;98876.28;;;12.34;75.58
78584;BME280;67880;46.082;18.234;2023-10-19T03:54:17;98882.41;;;12.28;76.42
78584;BME280;67880;46.082;18.234;2023-10-19T03:55:15;98875.56;;;12.26;76.68
78584;BME280;67880;46.082;18.234;2023-10-19T03:57:20;98874.88;;;12.38;76.83
78584;BME280;67880;46.082;18.234;2023-10-19T03:58:25;98882.75;;;12.40;77.79
78584;BME280;67880;46.082;18.234;2023-10-19T04:02:05;98883.03;;;12.45;79.57
78584;BME280;67880;46.082;18.234;2023-10-19T04:02:52;98884.78;;;12.53;78.62
78584;BME280;67880;46.082;18.234;2023-10-19T04:03:37;98872.78;;;12.55;79.15
78584;BME280;67880;46.082;18.234;2023-10-19T04:04:48;98871.56;;;12.58;79.60
78584;BME280;67880;46.082;18.234;2023-10-19T04:06:14;98867.09;;;12.43;80.50
78584;BME280;67880;46.082;18.234;2023-10-19T04:07:11;98873.94;;;12.46;80.05
78584;BME280;67880;46.082;18.234;2023-10-19T04:08:10;98872.53;;;12.50;80.03
78584;BME280;67880;46.082;18.234;2023-10-19T04:09:05;98866.25;;;12.43;80.58
78584;BME280;67880;46.082;18.234;2023-10-19T04:10:26;98865.09;;;12.52;80.78
78584;BME280;67880;46.082;18.234;2023-10-19T04:11:21;98869.19;;;12.48;81.10
78584;BME280;67880;46.082;18.234;2023-10-19T04:12:13;98866.69;;;12.46;81.98
78584;BME280;67880;46.082;18.234;2023-10-19T04:13:26;98858.94;;;12.58;81.72
78584;BME280;67880;46.082;18.234;2023-10-19T04:15:18;98846.44;;;12.51;81.42
78584;BME280;67880;46.082;18.234;2023-10-19T04:15:52;98849.13;;;12.51;81.43
78584;BME280;67880;46.082;18.234;2023-10-19T04:16:34;98848.47;;;12.48;81.77
78584;BME280;67880;46.082;18.234;2023-10-19T04:17:28;98850.16;;;12.50;82.24
78584;BME280;67880;46.082;18.234;2023-10-19T04:18:05;98851.06;;;12.57;82.11
78584;BME280;67880;46.082;18.234;2023-10-19T04:18:44;98860.59;;;12.59;81.30
78584;BME280;67880;46.082;18.234;2023-10-19T04:19:28;98857.41;;;12.70;81.69
78584;BME280;67880;46.082;18.234;2023-10-19T04:20:13;98855.34;;;12.72;80.74
78584;BME280;67880;46.082;18.234;2023-10-19T04:21:17;98856.94;;;12.67;80.86
78584;BME280;67880;46.082;18.234;2023-10-19T04:22:14;98848.81;;;12.60;81.83
78584;BME280;67880;46.082;18.234;2023-10-19T04:23:41;98843.06;;;12.63;81.83
78584;BME280;67880;46.082;18.234;2023-10-19T04:27:42;98844.16;;;12.69;80.42
78584;BME280;67880;46.082;18.234;2023-10-19T04:28:44;98846.78;;;12.62;80.55
78584;BME280;67880;46.082;18.234;2023-10-19T04:41:22;98848.25;;;12.65;80.44
78584;BME280;67880;46.082;18.234;2023-10-19T04:44:47;98839.97;;;12.66;80.65
78584;BME280;67880;46.082;18.234;2023-10-19T05:00:48;98829.53;;;12.57;80.63
78584;BME280;67880;46.082;18.234;2023-10-19T05:07:25;98821.88;;;12.39;81.42
78584;BME280;67880;46.082;18.234;2023-10-19T05:08:53;98830.53;;;12.34;81.36
78584;BME280;67880;46.082;18.234;2023-10-19T05:09:51;98831.81;;;12.38;81.64
78584;BME280;67880;46.082;18.234;2023-10-19T05:16:00;98821.56;;;12.48;80.95
78584;BME280;67880;46.082;18.234;2023-10-19T05:24:45;98822.31;;;12.42;80.94
78584;BME280;67880;46.082;18.234;2023-10-19T05:28:32;98820.56;;;12.50;81.01
78584;BME280;67880;46.082;18.234;2023-10-19T05:29:44;98815.75;;;12.45;80.74
78584;BME280;67880;46.082;18.234;2023-10-19T05:30:31;98821.31;;;12.43;80.99
78584;BME280;67880;46.082;18.234;2023-10-19T05:31:08;98821.69;;;12.40;80.88
78584;BME280;67880;46.082;18.234;2023-10-19T05:32:00;98811.75;;;12.41;81.17
78584;BME280;67880;46.082;18.234;2023-10-19T05:32:47;98816.69;;;12.37;80.99
78584;BME280;67880;46.082;18.234;2023-10-19T05:33:33;98817.06;;;12.34;81.24
78584;BME280;67880;46.082;18.234;2023-10-19T05:34:46;98808.28;;;12.47;80.59
78584;BME280;67880;46.082;18.234;2023-10-19T05:37:15;98813.75;;;12.54;79.64
78584;BME280;67880;46.082;18.234;2023-10-19T05:38:15;98814.19;;;12.57;79.88
78584;BME280;67880;46.082;18.234;2023-10-19T05:40:25;98815.91;;;12.65;79.21
78584;BME280;67880;46.082;18.234;2023-10-19T05:42:11;98815.47;;;12.61;78.98
78584;BME280;67880;46.082;18.234;2023-10-19T05:43:51;98817.06;;;12.56;79.46
78584;BME280;67880;46.082;18.234;2023-10-19T05:47:37;98809.72;;;12.64;79.14
78584;BME280;67880;46.082;18.234;2023-10-19T05:48:45;98806.25;;;12.70;78.76
78584;BME280;67880;46.082;18.234;2023-10-19T05:49:47;98800.03;;;12.70;78.57
78584;BME280;67880;46.082;18.234;2023-10-19T05:50:56;98796.09;;;12.72;78.08
78584;BME280;67880;46.082;18.234;2023-10-19T05:52:01;98811.38;;;12.65;77.88
78584;BME280;67880;46.082;18.234;2023-10-19T05:53:35;98792.56;;;12.72;77.78
78584;BME280;67880;46.082;18.234;2023-10-19T05:54:26;98795.91;;;12.74;77.65
78584;BME280;67880;46.082;18.234;2023-10-19T05:55:17;98798.53;;;12.67;78.36
78584;BME280;67880;46.082;18.234;2023-10-19T05:56:15;98814.91;;;12.66;78.54
78584;BME280;67880;46.082;18.234;2023-10-19T05:59:11;98800.13;;;12.83;77.80
78584;BME280;67880;46.082;18.234;2023-10-19T06:00:23;98802.81;;;12.83;78.11
78584;BME280;67880;46.082;18.234;2023-10-19T06:07:00;98812.22;;;12.94;76.99
78584;BME280;67880;46.082;18.234;2023-10-19T06:07:59;98797.19;;;12.78;77.19
78584;BME280;67880;46.082;18.234;2023-10-19T06:13:31;98806.75;;;13.09;76.15
78584;BME280;67880;46.082;18.234;2023-10-19T06:14:35;98797.59;;;13.03;75.99
78584;BME280;67880;46.082;18.234;2023-10-19T06:22:07;98794.69;;;13.05;75.72
78584;BME280;67880;46.082;18.234;2023-10-19T06:23:03;98803.22;;;13.08;75.83
78584;BME280;67880;46.082;18.234;2023-10-19T06:25:31;98799.13;;;13.19;74.94
78584;BME280;67880;46.082;18.234;2023-10-19T06:26:43;98800.28;;;13.03;75.43
78584;BME280;67880;46.082;18.234;2023-10-19T06:28:13;98788.06;;;13.07;75.16
78584;BME280;67880;46.082;18.234;2023-10-19T06:30:10;98791.88;;;13.19;75.60
78584;BME280;67880;46.082;18.234;2023-10-19T06:33:39;98788.91;;;13.36;74.00
78584;BME280;67880;46.082;18.234;2023-10-19T06:36:17;98770.41;;;13.26;74.11
78584;BME280;67880;46.082;18.234;2023-10-19T06:37:54;98773.66;;;13.49;72.65
78584;BME280;67880;46.082;18.234;2023-10-19T06:43:10;98767.38;;;13.42;73.20
78584;BME280;67880;46.082;18.234;2023-10-19T06:47:06;98769.50;;;13.47;72.82
78584;BME280;67880;46.082;18.234;2023-10-19T06:52:07;98776.59;;;13.54;72.16
78584;BME280;67880;46.082;18.234;2023-10-19T06:53:49;98773.13;;;13.74;72.16
78584;BME280;67880;46.082;18.234;2023-10-19T07:04:01;98758.44;;;13.90;71.08
78584;BME280;67880;46.082;18.234;2023-10-19T07:07:01;98754.84;;;14.37;69.90
78584;BME280;67880;46.082;18.234;2023-10-19T07:09:20;98750.31;;;14.84;68.19
78584;BME280;67880;46.082;18.234;2023-10-19T07:16:10;98746.88;;;16.31;62.98
78584;BME280;67880;46.082;18.234;2023-10-19T07:18:06;98749.16;;;16.59;61.95
78584;BME280;67880;46.082;18.234;2023-10-19T07:20:04;98747.47;;;16.65;61.24
78584;BME280;67880;46.082;18.234;2023-10-19T07:22:00;98750.63;;;17.12;59.52
78584;BME280;67880;46.082;18.234;2023-10-19T07:23:42;98742.50;;;17.48;58.54
78584;BME280;67880;46.082;18.234;2023-10-19T07:24:57;98756.50;;;17.64;58.25
78584;BME280;67880;46.082;18.234;2023-10-19T07:28:53;98743.69;;;17.89;56.87
78584;BME280;67880;46.082;18.234;2023-10-19T07:32:49;98744.16;;;17.31;58.92
78584;BME280;67880;46.082;18.234;2023-10-19T07:35:37;98735.66;;;16.84;59.96
78584;BME280;67880;46.082;18.234;2023-10-19T07:37:20;98730.66;;;16.56;61.21
78584;BME280;67880;46.082;18.234;2023-10-19T07:39:47;98726.59;;;16.40;62.00
78584;BME280;67880;46.082;18.234;2023-10-19T07:40:27;98722.47;;;16.06;62.59
78584;BME280;67880;46.082;18.234;2023-10-19T07:41:09;98725.69;;;16.21;62.80
78584;BME280;67880;46.082;18.234;2023-10-19T07:42:00;98727.56;;;16.21;62.71
78584;BME280;67880;46.082;18.234;2023-10-19T07:42:55;98733.72;;;16.35;62.24
78584;BME280;67880;46.082;18.234;2023-10-19T07:46:32;98719.66;;;16.51;61.86
78584;BME280;67880;46.082;18.234;2023-10-19T07:48:22;98711.16;;;16.72;61.33
78584;BME280;67880;46.082;18.234;2023-10-19T07:50:16;98715.75;;;17.15;60.09
78584;BME280;67880;46.082;18.234;2023-10-19T07:54:57;98703.81;;;16.98;61.29
78584;BME280;67880;46.082;18.234;2023-10-19T07:56:34;98715.53;;;17.17;60.50
78584;BME280;67880;46.082;18.234;2023-10-19T07:59:10;98714.63;;;17.41;59.09
78584;BME280;67880;46.082;18.234;2023-10-19T08:01:16;98710.94;;;17.72;59.20
78584;BME280;67880;46.082;18.234;2023-10-19T08:04:43;98706.09;;;17.56;59.05
78584;BME280;67880;46.082;18.234;2023-10-19T08:06:42;98701.78;;;17.67;58.72
78584;BME280;67880;46.082;18.234;2023-10-19T08:09:05;98700.69;;;17.74;58.66
78584;BME280;67880;46.082;18.234;2023-10-19T08:14:49;98693.47;;;18.52;56.83
78584;BME280;67880;46.082;18.234;2023-10-19T08:17:43;98674.69;;;18.62;56.09
78584;BME280;67880;46.082;18.234;2023-10-19T08:21:42;98674.81;;;18.67;55.93